Time;durP1;ratioP1;P1;durP2;ratioP2;P2;SDS_P1;SDS_P2;PMS_P1;PMS_P2;Temp;Humidity;BMP_temperature;BMP_pressure;BME280_temperature;BME280_humidity;BME280_pressure;Samples;Min_cycle;Max_cycle;Signal;HPM_P1;HPM_P2
2024/01/14 00:02:10;;;;;;;1.17;0.70;;;16.70;59.30;;;;;;4824315;29;20177;-82
2024/01/14 00:04:35;;;;;;;1.17;0.80;;;16.70;59.10;;;;;;4840105;29;20525;-82
2024/01/14 00:07:01;;;;;;;1.02;0.75;;;16.70;58.80;;;;;;4823359;29;20180;-83
2024/01/14 00:09:27;;;;;;;3.03;1.00;;;16.70;59.10;;;;;;4858226;29;20169;-83
2024/01/14 00:11:54;;;;;;;1.67;0.75;;;16.70;59.10;;;;;;4838598;29;20169;-83
2024/01/14 00:14:19;;;;;;;1.15;0.60;;;16.70;59.20;;;;;;4839610;29;20193;-83
2024/01/14 00:16:49;;;;;;;0.73;0.68;;;16.60;59.20;;;;;;4839628;29;20192;-83
2024/01/14 00:19:15;;;;;;;1.13;0.75;;;16.60;59.90;;;;;;4839149;29;20267;-82
2024/01/14 00:21:45;;;;;;;0.90;0.80;;;16.60;59.30;;;;;;4821618;29;20209;-82
2024/01/14 00:24:11;;;;;;;2.03;0.70;;;16.60;59.30;;;;;;4836784;29;20181;-83
2024/01/14 00:26:37;;;;;;;0.98;0.75;;;16.70;59.40;;;;;;4877252;23;20588;-83
2024/01/14 00:29:03;;;;;;;1.20;1.02;;;16.60;59.20;;;;;;4839219;29;20233;-83
2024/01/14 00:34:18;;;;;;;1.00;0.65;;;16.60;59.10;;;;;;4891174;24;20243;-83
2024/01/14 00:36:43;;;;;;;0.90;0.70;;;16.60;59.00;;;;;;4824151;29;20637;-82
2024/01/14 00:39:12;;;;;;;1.63;0.80;;;16.60;59.20;;;;;;4854140;29;20171;-82
2024/01/14 00:41:38;;;;;;;0.75;0.75;;;16.60;59.20;;;;;;4850631;29;20208;-82
2024/01/14 00:44:04;;;;;;;1.90;0.82;;;16.70;59.00;;;;;;4841462;29;20640;-82
2024/01/14 00:46:31;;;;;;;1.30;0.90;;;16.70;59.00;;;;;;4841098;29;20173;-82
2024/01/14 00:48:57;;;;;;;1.27;1.00;;;16.70;59.10;;;;;;4839405;29;20173;-82
2024/01/14 00:51:24;;;;;;;1.27;0.73;;;16.60;59.00;;;;;;4854808;29;20176;-83
2024/01/14 00:53:50;;;;;;;1.65;0.65;;;16.60;59.20;;;;;;4838135;29;20164;-82
2024/01/14 00:56:16;;;;;;;1.13;0.70;;;16.60;59.10;;;;;;4824339;29;20187;-82
2024/01/14 00:58:43;;;;;;;1.42;0.80;;;16.60;59.30;;;;;;4839395;29;20293;-83
2024/01/14 01:01:10;;;;;;;1.50;0.80;;;16.60;59.20;;;;;;4823727;29;20254;-81
2024/01/14 01:03:36;;;;;;;1.15;0.80;;;16.70;59.40;;;;;;4838081;29;20157;-82
2024/01/14 01:06:01;;;;;;;1.48;0.90;;;16.60;59.40;;;;;;4853114;29;20172;-82
2024/01/14 01:08:27;;;;;;;1.27;0.90;;;16.60;59.20;;;;;;4869773;29;20182;-82
2024/01/14 01:10:53;;;;;;;4.13;0.95;;;16.50;59.20;;;;;;4839482;29;20631;-84
2024/01/14 01:13:19;;;;;;;1.20;0.90;;;16.60;59.10;;;;;;4853515;29;20184;-81
2024/01/14 01:15:48;;;;;;;1.23;0.80;;;16.60;59.50;;;;;;4838381;29;20185;-82
2024/01/14 01:18:13;;;;;;;1.15;0.70;;;16.50;59.50;;;;;;4838126;29;20543;-82
2024/01/14 01:20:39;;;;;;;1.30;0.90;;;16.60;59.40;;;;;;4827613;29;20208;-82
2024/01/14 01:23:05;;;;;;;1.38;0.77;;;16.60;59.40;;;;;;4849631;29;20189;-82
2024/01/14 01:25:31;;;;;;;1.40;0.80;;;16.50;59.20;;;;;;4854028;29;20181;-82
2024/01/14 01:27:57;;;;;;;0.85;0.80;;;16.50;59.30;;;;;;4837780;29;20172;-82
2024/01/14 01:30:22;;;;;;;1.25;0.90;;;16.50;59.10;;;;;;4836805;29;20537;-82
2024/01/14 01:32:49;;;;;;;0.95;0.80;;;16.60;59.20;;;;;;4852858;29;20624;-83
2024/01/14 01:35:17;;;;;;;1.60;0.95;;;16.60;59.30;;;;;;4836304;29;20280;-82
2024/01/14 01:37:44;;;;;;;0.75;0.70;;;16.60;59.10;;;;;;4855018;29;20523;-81
2024/01/14 01:40:11;;;;;;;1.67;0.98;;;16.60;59.20;;;;;;4839409;29;20212;-83
2024/01/14 01:42:37;;;;;;;1.63;0.70;;;16.50;59.30;;;;;;4870442;29;20239;-82
2024/01/14 01:45:09;;;;;;;2.08;0.93;;;16.50;59.30;;;;;;4855552;29;20207;-82
2024/01/14 01:47:35;;;;;;;2.25;1.00;;;16.50;59.30;;;;;;4824147;29;20259;-82
2024/01/14 01:50:01;;;;;;;1.00;0.90;;;16.50;59.50;;;;;;4839920;29;20267;-82
2024/01/14 01:52:27;;;;;;;1.10;0.70;;;16.50;59.40;;;;;;4854162;29;20580;-82
2024/01/14 01:54:54;;;;;;;1.52;0.80;;;16.50;59.20;;;;;;4869667;29;20172;-82
2024/01/14 01:57:22;;;;;;;1.38;0.73;;;16.50;59.50;;;;;;4837290;29;20673;-82
2024/01/14 01:59:49;;;;;;;1.73;0.90;;;16.50;59.60;;;;;;4822565;29;20230;-81
2024/01/14 02:02:15;;;;;;;1.00;0.88;;;16.50;59.60;;;;;;4854023;29;20180;-81
2024/01/14 02:04:43;;;;;;;1.52;0.98;;;16.50;59.50;;;;;;4839998;29;20234;-81
2024/01/14 02:07:09;;;;;;;1.10;0.80;;;16.40;59.60;;;;;;4838956;29;20180;-81
2024/01/14 02:09:35;;;;;;;0.70;0.70;;;16.40;59.50;;;;;;4864991;29;20169;-82
2024/01/14 02:12:00;;;;;;;2.45;1.10;;;16.40;59.30;;;;;;4852160;29;20192;-82
2024/01/14 02:14:26;;;;;;;0.93;0.73;;;16.50;59.60;;;;;;4820696;29;20187;-82
2024/01/14 02:16:53;;;;;;;2.03;0.70;;;16.50;59.40;;;;;;4836213;29;20173;-82
2024/01/14 02:19:23;;;;;;;0.93;0.70;;;16.50;59.60;;;;;;4820352;29;20188;-83
2024/01/14 02:21:54;;;;;;;0.70;0.63;;;16.40;59.40;;;;;;4835716;29;20201;-83
2024/01/14 02:24:27;;;;;;;1.08;0.80;;;16.50;59.50;;;;;;4821749;29;20173;-82
2024/01/14 02:26:54;;;;;;;0.90;0.70;;;16.40;59.50;;;;;;4852218;29;20289;-82
2024/01/14 02:29:20;;;;;;;1.00;0.80;;;16.40;59.60;;;;;;4836472;29;20240;-82
2024/01/14 02:31:47;;;;;;;2.10;0.90;;;16.40;59.50;;;;;;4820718;29;20232;-83
2024/01/14 02:34:12;;;;;;;0.95;0.70;;;16.50;59.40;;;;;;4819672;29;20234;-82
2024/01/14 02:36:42;;;;;;;1.85;0.98;;;16.50;59.40;;;;;;4835457;29;20612;-83
2024/01/14 02:39:09;;;;;;;1.77;0.88;;;16.40;59.40;;;;;;4820312;29;20197;-82
2024/01/14 02:41:36;;;;;;;1.13;0.70;;;16.50;59.50;;;;;;4836227;29;20201;-82
2024/01/14 02:44:07;;;;;;;1.00;0.70;;;16.40;59.60;;;;;;4824624;29;20168;-82
2024/01/14 02:46:35;;;;;;;1.33;0.80;;;16.40;59.30;;;;;;4796868;29;20195;-82
2024/01/14 02:49:02;;;;;;;0.98;0.85;;;16.50;59.40;;;;;;4846847;29;20193;-83
2024/01/14 02:51:28;;;;;;;1.40;0.80;;;16.50;59.30;;;;;;4831678;29;20241;-83
2024/01/14 02:53:54;;;;;;;1.40;0.98;;;16.40;59.40;;;;;;4831260;29;20252;-82
2024/01/14 02:56:19;;;;;;;1.60;1.00;;;16.40;59.40;;;;;;4817210;29;20185;-82
2024/01/14 02:58:45;;;;;;;1.50;0.90;;;16.40;59.50;;;;;;4815279;29;20173;-82
2024/01/14 03:01:12;;;;;;;1.05;0.90;;;16.40;59.50;;;;;;4800872;29;20593;-83
2024/01/14 03:03:38;;;;;;;1.08;0.80;;;16.40;59.50;;;;;;4816102;29;20190;-82
2024/01/14 03:06:04;;;;;;;1.20;0.90;;;16.40;59.40;;;;;;4816765;29;20197;-83
2024/01/14 03:08:30;;;;;;;1.10;0.80;;;16.50;59.50;;;;;;4830536;29;20189;-82
2024/01/14 03:10:57;;;;;;;1.50;0.88;;;16.30;59.50;;;;;;4815713;29;20233;-83
2024/01/14 03:13:28;;;;;;;1.65;0.85;;;16.40;59.30;;;;;;4814040;29;20185;-83
2024/01/14 03:15:54;;;;;;;1.23;0.80;;;16.40;59.50;;;;;;4834738;29;20165;-83
2024/01/14 03:18:20;;;;;;;1.38;1.05;;;16.40;59.50;;;;;;4866843;29;20183;-82
2024/01/14 03:20:47;;;;;;;1.10;0.80;;;16.40;59.50;;;;;;4835521;29;20256;-82
2024/01/14 03:23:17;;;;;;;1.42;0.80;;;16.40;59.60;;;;;;4867055;29;20158;-82
2024/01/14 03:25:43;;;;;;;1.30;0.90;;;16.40;59.60;;;;;;4789396;29;20192;-82
2024/01/14 03:28:09;;;;;;;1.52;0.93;;;16.40;59.50;;;;;;4835177;29;20175;-83
2024/01/14 03:30:45;;;;;;;1.30;0.98;;;16.40;59.60;;;;;;4850730;29;20241;-83
2024/01/14 03:33:11;;;;;;;1.33;0.70;;;16.40;59.20;;;;;;4815894;29;20236;-83
2024/01/14 03:35:36;;;;;;;1.52;0.80;;;16.50;59.60;;;;;;4817148;29;20177;-82
2024/01/14 03:38:03;;;;;;;1.58;0.88;;;16.40;59.60;;;;;;4832253;29;20298;-82
2024/01/14 03:40:30;;;;;;;1.88;0.80;;;16.40;59.50;;;;;;4832761;29;20338;-82
2024/01/14 03:42:56;;;;;;;2.00;1.08;;;16.40;59.50;;;;;;4816363;29;20170;-83
2024/01/14 03:45:23;;;;;;;1.70;0.90;;;16.40;59.60;;;;;;4831845;29;20648;-82
2024/01/14 03:47:48;;;;;;;1.63;0.70;;;16.40;59.60;;;;;;4832671;29;20165;-83
2024/01/14 03:50:17;;;;;;;1.67;0.80;;;16.40;60.20;;;;;;4832506;29;20212;-83
2024/01/14 03:52:43;;;;;;;0.80;0.70;;;16.40;59.60;;;;;;4800661;29;20177;-82
2024/01/14 03:55:09;;;;;;;0.90;0.80;;;16.40;59.50;;;;;;4832093;29;20212;-82
2024/01/14 03:57:35;;;;;;;1.48;0.90;;;16.40;59.50;;;;;;4833063;29;20165;-82
2024/01/14 04:00:03;;;;;;;1.48;0.82;;;16.40;59.50;;;;;;4832466;29;20205;-82
2024/01/14 04:02:35;;;;;;;1.33;0.98;;;16.40;59.50;;;;;;4836026;29;20177;-82
2024/01/14 04:05:01;;;;;;;0.95;0.82;;;16.30;59.60;;;;;;4816362;29;20596;-83
2024/01/14 04:07:28;;;;;;;1.40;0.95;;;16.40;59.50;;;;;;4827995;29;20272;-82
2024/01/14 04:10:00;;;;;;;1.58;0.93;;;16.30;59.40;;;;;;4779031;30;20180;-81
2024/01/14 04:12:27;;;;;;;1.00;0.90;;;16.30;59.60;;;;;;4793143;30;20179;-82
2024/01/14 04:14:56;;;;;;;1.95;1.20;;;16.30;59.60;;;;;;4792145;30;20191;-82
2024/01/14 04:17:24;;;;;;;1.10;1.00;;;16.30;59.60;;;;;;4808361;29;20324;-82
2024/01/14 04:19:54;;;;;;;1.67;0.95;;;16.30;59.60;;;;;;4794302;30;20192;-82
2024/01/14 04:22:23;;;;;;;1.15;0.95;;;16.30;59.60;;;;;;4776169;30;20734;-83
2024/01/14 04:24:49;;;;;;;1.40;0.90;;;16.30;59.60;;;;;;4791853;30;20198;-82
2024/01/14 04:27:17;;;;;;;2.08;0.88;;;16.20;59.60;;;;;;4795793;29;20195;-83
2024/01/14 04:29:44;;;;;;;0.75;0.75;;;16.30;59.60;;;;;;4794042;30;20195;-83
2024/01/14 04:32:10;;;;;;;1.58;0.90;;;16.40;59.60;;;;;;4764913;29;20199;-82
2024/01/14 04:34:37;;;;;;;2.47;1.00;;;16.30;59.40;;;;;;4813035;29;20175;-82
2024/01/14 04:37:08;;;;;;;1.10;1.00;;;16.30;59.60;;;;;;4824270;29;20211;-82
2024/01/14 04:39:34;;;;;;;1.85;1.40;;;16.30;59.60;;;;;;4791976;29;20209;-82
2024/01/14 04:42:01;;;;;;;1.73;1.00;;;16.30;59.60;;;;;;4853365;29;20181;-83
2024/01/14 04:44:27;;;;;;;1.02;0.82;;;16.40;59.60;;;;;;4853369;29;20161;-83
2024/01/14 04:46:54;;;;;;;1.50;1.00;;;16.30;59.50;;;;;;4853687;29;20161;-82
2024/01/14 04:49:23;;;;;;;1.25;0.77;;;16.30;59.50;;;;;;4854726;29;20161;-82
2024/01/14 04:51:51;;;;;;;0.68;0.68;;;16.30;59.50;;;;;;4838593;29;20197;-83
2024/01/14 04:54:18;;;;;;;1.30;0.80;;;16.30;59.40;;;;;;4804844;29;20189;-82
2024/01/14 04:56:45;;;;;;;1.23;0.93;;;16.30;59.40;;;;;;4804788;29;20170;-83
2024/01/14 04:59:12;;;;;;;0.88;0.80;;;16.30;59.30;;;;;;4805850;29;20173;-82
2024/01/14 05:01:37;;;;;;;1.38;0.85;;;16.30;59.50;;;;;;4835673;29;20835;-83
2024/01/14 05:04:06;;;;;;;1.10;1.00;;;16.30;59.50;;;;;;4841506;29;20195;-82
2024/01/14 05:06:36;;;;;;;1.52;1.10;;;16.30;59.30;;;;;;4839699;29;20608;-82
2024/01/14 05:09:03;;;;;;;1.30;0.80;;;16.30;59.40;;;;;;4837154;29;20205;-82
2024/01/14 05:11:30;;;;;;;2.33;0.85;;;16.30;59.20;;;;;;4824766;29;20172;-82
2024/01/14 05:13:59;;;;;;;1.58;0.77;;;16.30;59.30;;;;;;4824901;29;20181;-82
2024/01/14 05:16:26;;;;;;;1.38;0.98;;;16.30;59.50;;;;;;4820429;29;20197;-82
2024/01/14 05:18:56;;;;;;;1.48;0.70;;;16.30;59.50;;;;;;4837230;29;20197;-82
2024/01/14 05:21:22;;;;;;;1.70;1.00;;;16.30;59.50;;;;;;4820783;29;20232;-82
2024/01/14 05:23:48;;;;;;;1.08;0.80;;;16.30;59.60;;;;;;4872899;29;20175;-83
2024/01/14 05:26:14;;;;;;;0.80;0.70;;;16.30;59.50;;;;;;4842831;29;20174;-83
2024/01/14 05:28:40;;;;;;;1.15;0.80;;;16.30;59.50;;;;;;4848088;29;20168;-83
2024/01/14 05:31:06;;;;;;;1.02;0.80;;;16.30;59.50;;;;;;4839273;29;20177;-82
2024/01/14 05:33:32;;;;;;;1.20;0.90;;;16.30;59.50;;;;;;4853879;29;20236;-82
2024/01/14 05:35:58;;;;;;;1.45;0.63;;;16.30;59.50;;;;;;4838505;29;20520;-82
2024/01/14 05:38:24;;;;;;;1.00;0.90;;;16.30;59.60;;;;;;4822365;29;20181;-82
2024/01/14 05:40:50;;;;;;;1.15;0.85;;;16.30;59.50;;;;;;4846375;29;20604;-82
2024/01/14 05:43:16;;;;;;;2.15;0.93;;;16.30;59.50;;;;;;4856897;29;20187;-82
2024/01/14 05:45:42;;;;;;;0.88;0.88;;;16.30;59.40;;;;;;4856061;29;20180;-82
2024/01/14 05:48:11;;;;;;;0.93;0.82;;;16.20;59.50;;;;;;4840183;29;20168;-83
2024/01/14 05:50:37;;;;;;;1.02;0.93;;;16.20;59.50;;;;;;4823208;29;20248;-82
2024/01/14 05:53:03;;;;;;;1.20;0.90;;;16.30;59.50;;;;;;4853055;29;20161;-83
2024/01/14 05:55:30;;;;;;;2.33;1.10;;;16.30;59.60;;;;;;4837763;29;20173;-82
2024/01/14 05:57:59;;;;;;;2.42;1.08;;;16.20;59.50;;;;;;4836772;29;20401;-82
2024/01/14 06:00:25;;;;;;;1.23;1.05;;;16.40;59.40;;;;;;4837280;29;20197;-83
2024/01/14 06:02:54;;;;;;;1.20;0.98;;;16.30;59.50;;;;;;4837460;29;20165;-83
2024/01/14 06:05:22;;;;;;;0.98;0.77;;;16.30;59.30;;;;;;4852467;29;20248;-83
2024/01/14 06:07:48;;;;;;;0.90;0.80;;;16.30;59.50;;;;;;4852376;29;20216;-82
2024/01/14 06:10:15;;;;;;;1.15;0.93;;;16.20;59.50;;;;;;4865785;29;20168;-82
2024/01/14 06:12:41;;;;;;;2.25;0.63;;;16.30;59.60;;;;;;4848058;29;20236;-81
2024/01/14 06:15:08;;;;;;;1.02;0.90;;;16.20;59.50;;;;;;4838391;29;20169;-82
2024/01/14 06:17:34;;;;;;;1.40;0.80;;;16.20;59.60;;;;;;4821380;29;20169;-82
2024/01/14 06:20:00;;;;;;;1.17;0.90;;;16.20;59.50;;;;;;4850781;29;20228;-83
2024/01/14 06:22:29;;;;;;;1.00;0.90;;;16.20;59.50;;;;;;4821716;29;20225;-82
2024/01/14 06:24:55;;;;;;;1.25;0.80;;;16.30;59.50;;;;;;4820365;29;20188;-82
2024/01/14 06:27:21;;;;;;;0.95;0.80;;;16.30;59.40;;;;;;4821870;29;20179;-82
2024/01/14 06:29:47;;;;;;;0.80;0.77;;;16.30;59.50;;;;;;4821350;29;20180;-82
2024/01/14 06:32:13;;;;;;;1.02;0.80;;;16.20;59.50;;;;;;4820484;29;20300;-82
2024/01/14 06:34:41;;;;;;;0.50;0.50;;;16.20;59.40;;;;;;4820168;29;20216;-81
2024/01/14 06:37:11;;;;;;;1.50;0.90;;;16.20;59.50;;;;;;4835360;29;20651;-81
2024/01/14 06:39:37;;;;;;;1.73;0.95;;;16.20;59.50;;;;;;4816068;29;20184;-81
2024/01/14 06:42:04;;;;;;;1.08;0.90;;;16.20;59.40;;;;;;4846689;29;20206;-81
2024/01/14 06:44:32;;;;;;;1.40;0.85;;;16.30;59.40;;;;;;4831022;29;20174;-81
2024/01/14 06:46:59;;;;;;;1.10;0.82;;;16.30;59.40;;;;;;4809160;29;20204;-82
2024/01/14 06:49:28;;;;;;;1.20;0.80;;;16.30;59.30;;;;;;4834816;29;20169;-82
2024/01/14 06:51:54;;;;;;;0.88;0.80;;;16.30;59.50;;;;;;4849664;29;20176;-82
2024/01/14 06:54:20;;;;;;;2.55;1.05;;;16.30;59.30;;;;;;4831003;29;20785;-82
2024/01/14 06:56:46;;;;;;;0.60;0.60;;;16.30;59.20;;;;;;4817175;29;20173;-82
2024/01/14 06:59:18;;;;;;;2.10;0.88;;;16.30;59.20;;;;;;4831954;29;20153;-82
2024/01/14 07:01:45;;;;;;;1.05;0.70;;;16.30;59.20;;;;;;4836379;29;20260;-82
2024/01/14 07:04:14;;;;;;;1.00;0.80;;;16.20;60.00;;;;;;4835031;29;20176;-82
2024/01/14 07:06:41;;;;;;;1.70;0.90;;;16.20;59.30;;;;;;4849871;29;20180;-82
2024/01/14 07:09:11;;;;;;;0.95;0.70;;;16.20;59.40;;;;;;4835070;29;20850;-82
2024/01/14 07:11:37;;;;;;;0.80;0.80;;;16.10;59.20;;;;;;4865897;29;20181;-82
2024/01/14 07:14:03;;;;;;;1.70;0.82;;;16.30;59.20;;;;;;4819647;29;20169;-82
2024/01/14 07:16:29;;;;;;;1.00;0.80;;;16.30;59.30;;;;;;4834940;29;20177;-82
2024/01/14 07:18:56;;;;;;;0.95;0.70;;;16.30;59.20;;;;;;4819836;29;20195;-82
2024/01/14 07:21:23;;;;;;;1.38;0.85;;;16.30;59.10;;;;;;4819816;29;20238;-82
2024/01/14 07:23:50;;;;;;;2.63;1.13;;;16.30;59.10;;;;;;4822557;29;20691;-82
2024/01/14 07:26:18;;;;;;;1.35;0.95;;;16.30;59.00;;;;;;4862579;29;20232;-82
2024/01/14 07:28:44;;;;;;;1.65;1.10;;;16.30;59.50;;;;;;4854267;29;20308;-84
2024/01/14 07:31:10;;;;;;;0.95;0.88;;;16.20;59.70;;;;;;4830538;29;20263;-83
2024/01/14 07:33:39;;;;;;;1.00;0.80;;;16.30;60.10;;;;;;4815159;29;20232;-81
2024/01/14 07:36:05;;;;;;;2.90;1.25;;;16.20;59.70;;;;;;4830767;29;20223;-82
2024/01/14 07:38:30;;;;;;;1.17;0.80;;;16.20;59.80;;;;;;4830162;29;20173;-83
2024/01/14 07:40:56;;;;;;;2.33;0.90;;;16.30;60.00;;;;;;4844813;29;20231;-82
2024/01/14 07:43:26;;;;;;;2.17;0.73;;;16.20;59.60;;;;;;4841290;29;20173;-82
2024/01/14 07:45:54;;;;;;;1.45;0.80;;;16.30;59.40;;;;;;4797057;29;20229;-82
2024/01/14 07:48:26;;;;;;;2.28;1.13;;;16.20;59.40;;;;;;4796851;29;20192;-83
2024/01/14 07:50:54;;;;;;;1.77;1.00;;;16.30;59.60;;;;;;4811839;29;20557;-83
2024/01/14 07:53:21;;;;;;;0.85;0.75;;;16.30;60.00;;;;;;4831510;29;20271;-82
2024/01/14 07:55:46;;;;;;;2.92;1.00;;;16.30;59.40;;;;;;4845312;29;20627;-82
2024/01/14 07:58:17;;;;;;;1.23;0.90;;;16.30;59.20;;;;;;4834169;29;20164;-83
2024/01/14 08:00:48;;;;;;;1.63;0.90;;;16.40;59.20;;;;;;4828538;29;20198;-83
2024/01/14 08:03:14;;;;;;;2.22;0.90;;;16.40;60.30;;;;;;4821767;29;20260;-82
2024/01/14 08:05:40;;;;;;;1.88;0.70;;;16.40;59.20;;;;;;4849102;29;20684;-82
2024/01/14 08:08:06;;;;;;;1.80;1.23;;;16.60;59.20;;;;;;4840402;29;20219;-83
2024/01/14 08:10:33;;;;;;;2.17;0.70;;;16.60;59.40;;;;;;4840104;29;20291;-82
2024/01/14 08:12:59;;;;;;;1.85;0.60;;;16.70;59.10;;;;;;4820846;29;20185;-83
2024/01/14 08:15:25;;;;;;;1.00;0.75;;;16.80;58.70;;;;;;4832410;29;20259;-83
2024/01/14 08:17:51;;;;;;;0.77;0.77;;;16.90;58.10;;;;;;4832726;29;20166;-83
2024/01/14 08:20:16;;;;;;;3.35;1.00;;;16.90;58.10;;;;;;4834158;29;20274;-83
2024/01/14 08:22:42;;;;;;;2.38;1.10;;;16.90;57.90;;;;;;4831084;29;20645;-82
2024/01/14 08:25:09;;;;;;;2.45;0.73;;;17.00;57.90;;;;;;4853046;29;20160;-82
2024/01/14 08:27:36;;;;;;;0.98;0.80;;;17.00;57.90;;;;;;4852993;29;20188;-81
2024/01/14 08:30:05;;;;;;;2.97;0.75;;;16.90;58.10;;;;;;4822940;29;20220;-83
2024/01/14 08:32:31;;;;;;;3.30;0.60;;;17.00;57.80;;;;;;4837734;29;20216;-84
2024/01/14 08:34:57;;;;;;;3.92;0.88;;;17.00;58.00;;;;;;4838595;29;20202;-84
2024/01/14 08:37:23;;;;;;;1.45;0.80;;;17.10;57.60;;;;;;4837219;29;20165;-83
2024/01/14 08:39:50;;;;;;;3.30;0.77;;;17.00;57.60;;;;;;4836529;29;20188;-82
2024/01/14 08:42:17;;;;;;;5.20;1.02;;;17.10;57.40;;;;;;4838957;29;20276;-81
2024/01/14 08:44:47;;;;;;;3.35;1.20;;;17.00;57.90;;;;;;4849703;29;20187;-81
2024/01/14 08:47:13;;;;;;;5.63;1.00;;;17.10;57.50;;;;;;4853837;29;20189;-82
2024/01/14 08:49:43;;;;;;;2.97;0.88;;;17.10;57.80;;;;;;4853589;29;20165;-84
2024/01/14 08:52:11;;;;;;;3.83;0.98;;;17.10;58.00;;;;;;4853697;29;20212;-84
2024/01/14 08:54:37;;;;;;;3.38;0.98;;;17.10;57.60;;;;;;4835533;29;20202;-85
2024/01/14 08:57:03;;;;;;;6.30;1.08;;;17.20;57.20;;;;;;4831931;29;20542;-84
2024/01/14 08:59:33;;;;;;;3.90;1.00;;;17.20;57.80;;;;;;4816230;29;20168;-84
2024/01/14 09:01:59;;;;;;;7.20;1.08;;;17.20;57.90;;;;;;4831113;29;20208;-86
2024/01/14 09:04:25;;;;;;;2.55;0.85;;;17.30;58.10;;;;;;4849653;29;20161;-82
2024/01/14 09:06:53;;;;;;;5.72;1.15;;;17.20;57.80;;;;;;4834642;29;20180;-83
2024/01/14 09:09:19;;;;;;;7.43;1.08;;;17.20;58.90;;;;;;4837332;29;20183;-83
2024/01/14 09:11:46;;;;;;;3.75;0.77;;;17.20;58.40;;;;;;4852197;29;20185;-82
2024/01/14 09:14:14;;;;;;;15.75;1.55;;;17.10;58.00;;;;;;4835453;29;20520;-81
2024/01/14 09:16:40;;;;;;;11.10;1.75;;;17.20;58.10;;;;;;4850340;29;20180;-81
2024/01/14 09:19:10;;;;;;;6.88;1.40;;;17.20;57.80;;;;;;4850221;29;20164;-82
2024/01/14 09:21:37;;;;;;;6.80;1.45;;;17.30;57.80;;;;;;4848932;29;20315;-82
2024/01/14 09:24:04;;;;;;;6.60;1.15;;;17.30;57.50;;;;;;4852805;29;20599;-82
2024/01/14 09:26:33;;;;;;;6.10;1.05;;;17.30;57.60;;;;;;4849315;29;20197;-82
2024/01/14 09:29:03;;;;;;;7.35;1.08;;;17.40;57.50;;;;;;4817343;29;20223;-81
2024/01/14 09:31:30;;;;;;;8.57;1.10;;;17.40;57.60;;;;;;4833864;29;20200;-81
2024/01/14 09:33:55;;;;;;;5.28;1.00;;;17.40;57.70;;;;;;4836344;29;20229;-82
2024/01/14 09:36:22;;;;;;;5.00;1.02;;;17.40;57.70;;;;;;4835108;29;20157;-82
2024/01/14 09:38:47;;;;;;;5.00;1.20;;;17.40;57.70;;;;;;4835415;29;20232;-81
2024/01/14 09:41:34;;;;;;;7.18;1.25;;;17.40;57.70;;;;;;4835677;29;20736;-82
2024/01/14 09:44:01;;;;;;;6.38;0.98;;;17.50;57.40;;;;;;4820745;29;20170;-81
2024/01/14 09:46:27;;;;;;;5.82;1.52;;;17.50;57.80;;;;;;4832953;29;20179;-81
2024/01/14 09:48:55;;;;;;;4.93;1.10;;;17.40;57.60;;;;;;4852296;29;20604;-83
2024/01/14 09:51:30;;;;;;;3.90;1.00;;;17.40;57.70;;;;;;4838123;29;20255;-81
2024/01/14 09:54:01;;;;;;;8.05;0.98;;;17.40;58.00;;;;;;4821627;29;20587;-83
2024/01/14 09:56:33;;;;;;;5.47;1.30;;;17.50;58.00;;;;;;4809026;29;20193;-84
2024/01/14 09:59:04;;;;;;;9.82;1.23;;;17.40;58.20;;;;;;4837100;29;20181;-84
2024/01/14 10:01:48;;;;;;;10.35;1.25;;;17.40;58.00;;;;;;4835920;29;20220;-84
2024/01/14 10:04:19;;;;;;;4.68;1.02;;;17.40;58.30;;;;;;4834909;29;20651;-82
2024/01/14 10:06:52;;;;;;;14.45;2.00;;;17.40;58.30;;;;;;4835463;29;20183;-80
2024/01/14 10:09:34;;;;;;;15.23;1.80;;;17.40;58.90;;;;;;4849733;29;20257;-81
2024/01/14 10:12:03;;;;;;;10.18;1.35;;;17.30;58.80;;;;;;4834697;29;20325;-82
2024/01/14 10:14:34;;;;;;;11.35;1.60;;;17.30;58.70;;;;;;4862072;24;20380;-82
2024/01/14 10:17:01;;;;;;;8.98;1.45;;;17.30;59.20;;;;;;4864625;29;20196;-82
2024/01/14 10:19:28;;;;;;;11.05;1.67;;;17.30;58.90;;;;;;4849699;29;20168;-82
2024/01/14 10:22:00;;;;;;;11.30;1.20;;;17.30;59.20;;;;;;4884522;29;20199;-82
2024/01/14 10:24:26;;;;;;;9.73;1.63;;;17.30;59.20;;;;;;4881023;29;20180;-82
2024/01/14 10:27:00;;;;;;;8.60;1.38;;;17.20;59.10;;;;;;4834910;29;20176;-81
2024/01/14 10:29:27;;;;;;;10.13;1.65;;;17.30;58.60;;;;;;4850178;29;20223;-81
2024/01/14 10:31:54;;;;;;;7.95;1.48;;;17.30;58.30;;;;;;4857577;29;20165;-83
2024/01/14 10:34:20;;;;;;;13.90;1.42;;;17.40;57.60;;;;;;4819108;29;20213;-83
2024/01/14 10:36:50;;;;;;;12.93;1.45;;;17.40;59.00;;;;;;4834545;29;20164;-83
2024/01/14 10:39:19;;;;;;;12.23;1.33;;;17.30;58.30;;;;;;4831138;29;20701;-83
2024/01/14 10:41:46;;;;;;;5.70;1.17;;;17.40;58.30;;;;;;4847541;29;20224;-82
2024/01/14 10:44:16;;;;;;;4.25;1.17;;;17.40;57.70;;;;;;4847042;29;20593;-82
2024/01/14 10:46:42;;;;;;;6.93;1.13;;;17.50;57.20;;;;;;4831280;29;20192;-83
2024/01/14 10:49:12;;;;;;;4.22;0.90;;;17.50;57.00;;;;;;4867333;29;20165;-83
2024/01/14 10:51:42;;;;;;;8.00;1.30;;;17.50;56.80;;;;;;4830585;29;20227;-83
2024/01/14 10:54:32;;;;;;;8.85;1.85;;;17.50;57.80;;;;;;4863106;29;20169;-83
2024/01/14 10:57:22;;;;;;;4.38;1.25;;;17.50;58.10;;;;;;4819370;29;20333;-83
2024/01/14 10:59:55;;;;;;;12.82;1.60;;;17.40;59.20;;;;;;4849699;29;20214;-82
2024/01/14 11:02:22;;;;;;;10.00;1.42;;;17.40;58.60;;;;;;4849781;29;20269;-81
2024/01/14 11:04:50;;;;;;;4.55;1.00;;;17.40;58.20;;;;;;4864873;29;20199;-81
2024/01/14 11:07:16;;;;;;;10.00;1.30;;;17.40;58.50;;;;;;4816931;29;20188;-82
2024/01/14 11:09:44;;;;;;;9.90;1.40;;;17.40;58.70;;;;;;4863600;29;20728;-81
2024/01/14 11:12:19;;;;;;;7.28;1.30;;;17.40;58.20;;;;;;4833514;29;20219;-80
2024/01/14 11:14:53;;;;;;;12.55;1.50;;;17.50;58.30;;;;;;4866745;29;20219;-83
2024/01/14 11:17:52;;;;;;;9.15;2.05;;;17.40;58.30;;;;;;4846073;29;20188;-82
2024/01/14 11:20:21;;;;;;;10.38;1.40;;;17.50;58.60;;;;;;4862727;29;20614;-81
2024/01/14 11:22:50;;;;;;;8.13;1.17;;;17.50;57.70;;;;;;4835010;29;20668;-81
2024/01/14 11:25:16;;;;;;;11.05;1.40;;;17.50;58.00;;;;;;4843331;29;20188;-83
2024/01/14 11:27:42;;;;;;;10.40;1.13;;;17.50;58.20;;;;;;4851755;29;20189;-80
2024/01/14 11:30:11;;;;;;;11.93;1.77;;;17.50;58.00;;;;;;4848951;29;20192;-83
2024/01/14 11:32:39;;;;;;;14.05;1.75;;;17.60;58.10;;;;;;4862132;29;20251;-82
2024/01/14 11:35:05;;;;;;;7.80;1.20;;;17.50;58.90;;;;;;4848938;29;20188;-82
2024/01/14 11:37:40;;;;;;;9.13;1.42;;;17.50;57.70;;;;;;4861669;29;20188;-83
2024/01/14 11:40:16;;;;;;;15.55;1.33;;;17.50;58.30;;;;;;4876581;29;20643;-81
2024/01/14 11:42:50;;;;;;;10.20;1.30;;;17.50;57.60;;;;;;4864540;29;20706;-82
2024/01/14 11:45:33;;;;;;;14.88;1.70;;;17.60;57.30;;;;;;4847412;29;20831;-81
2024/01/14 11:48:00;;;;;;;16.35;1.83;;;17.50;57.80;;;;;;4864792;29;20652;-81
2024/01/14 11:50:26;;;;;;;16.48;1.95;;;17.60;58.30;;;;;;4867355;29;20530;-81
2024/01/14 11:52:56;;;;;;;7.22;1.48;;;17.50;58.90;;;;;;4866268;29;20185;-82
2024/01/14 11:55:24;;;;;;;8.32;1.55;;;17.50;58.60;;;;;;4882271;29;20192;-81
2024/01/14 11:57:53;;;;;;;17.17;2.15;;;17.50;59.20;;;;;;4864570;29;20156;-82
2024/01/14 12:00:31;;;;;;;14.05;1.67;;;17.50;59.70;;;;;;4878510;29;20655;-83
2024/01/14 12:03:06;;;;;;;7.75;1.70;;;17.50;58.90;;;;;;4865124;29;20181;-82
2024/01/14 12:05:32;;;;;;;16.63;1.40;;;17.50;58.10;;;;;;4830218;29;20175;-82
2024/01/14 12:07:58;;;;;;;7.78;1.60;;;17.50;58.90;;;;;;4845521;29;20189;-82
2024/01/14 12:10:25;;;;;;;10.23;1.52;;;17.50;58.50;;;;;;4844726;29;20192;-81
2024/01/14 12:12:50;;;;;;;8.25;1.30;;;17.40;58.90;;;;;;4845177;29;20232;-81
2024/01/14 12:15:16;;;;;;;11.48;1.33;;;17.40;59.20;;;;;;4844208;29;20179;-82
2024/01/14 12:17:54;;;;;;;7.78;1.02;;;17.40;58.80;;;;;;4828373;29;20494;-82
2024/01/14 12:20:25;;;;;;;8.25;1.70;;;17.40;58.90;;;;;;4844493;29;20210;-82
2024/01/14 12:23:04;;;;;;;19.25;1.90;;;17.30;59.20;;;;;;4797095;29;20194;-81
2024/01/14 12:25:33;;;;;;;7.05;1.23;;;17.40;59.20;;;;;;4843923;29;20169;-82
2024/01/14 12:27:59;;;;;;;10.57;1.77;;;17.30;58.40;;;;;;4812055;29;20185;-83
2024/01/14 12:30:30;;;;;;;7.70;1.48;;;17.30;58.90;;;;;;4844144;29;20173;-82
2024/01/14 12:32:56;;;;;;;13.80;1.60;;;17.40;58.70;;;;;;4830456;29;20240;-82
2024/01/14 12:35:36;;;;;;;13.43;1.60;;;17.50;59.00;;;;;;4848015;29;20158;-82
2024/01/14 12:38:06;;;;;;;10.60;1.45;;;17.40;58.50;;;;;;4817444;29;20207;-81
2024/01/14 12:40:33;;;;;;;13.73;1.58;;;17.40;59.20;;;;;;4802183;29;20224;-82
2024/01/14 12:43:00;;;;;;;14.77;2.13;;;17.40;59.20;;;;;;4817338;29;20196;-81
2024/01/14 12:45:26;;;;;;;17.83;1.70;;;17.40;59.70;;;;;;4848834;29;20187;-81
2024/01/14 12:47:57;;;;;;;7.68;1.10;;;17.30;59.50;;;;;;4837761;29;20193;-81
2024/01/14 12:50:24;;;;;;;10.50;1.27;;;17.40;58.90;;;;;;4866864;29;20164;-82
2024/01/14 12:52:58;;;;;;;10.43;1.27;;;17.40;59.20;;;;;;4848978;29;20164;-82